Time;durP1;ratioP1;P1;durP2;ratioP2;P2;SDS_P1;SDS_P2;PMS_P1;PMS_P2;Temp;Humidity;BMP_temperature;BMP_pressure;BME280_temperature;BME280_humidity;BME280_pressure;Samples;Min_cycle;Max_cycle;Signal;HPM_P1;HPM_P2
2023/08/14 00:01:05;;;;;;;3.50;3.20;;;26.50;64.50;;;;;;221776;1248;24263;-51
2023/08/14 00:06:11;;;;;;;4.50;3.50;;;26.40;64.40;;;;;;221687;1267;22759;-50
2023/08/14 00:11:14;;;;;;;3.50;3.20;;;26.50;64.60;;;;;;221700;1268;22614;-55
2023/08/14 00:16:17;;;;;;;3.60;2.90;;;26.40;64.60;;;;;;221847;1271;22545;-53
2023/08/14 00:21:20;;;;;;;3.70;3.30;;;26.40;65.20;;;;;;221978;1268;22748;-54
2023/08/14 00:26:23;;;;;;;4.10;3.50;;;26.40;64.80;;;;;;222010;1268;23220;-53
2023/08/14 00:31:26;;;;;;;3.90;3.60;;;26.40;64.90;;;;;;221647;1271;22616;-54
2023/08/14 00:36:29;;;;;;;3.40;3.10;;;26.30;65.00;;;;;;221791;1262;22641;-53
2023/08/14 00:41:32;;;;;;;3.30;3.10;;;26.30;65.00;;;;;;221776;1262;22523;-54
2023/08/14 00:46:35;;;;;;;3.40;3.00;;;26.30;65.30;;;;;;221539;1266;22772;-55
2023/08/14 00:51:38;;;;;;;4.10;3.20;;;26.30;64.90;;;;;;221728;1258;26580;-53
2023/08/14 00:56:41;;;;;;;4.20;3.50;;;26.40;65.00;;;;;;221963;1267;22514;-54
2023/08/14 01:01:44;;;;;;;3.50;3.20;;;26.30;64.90;;;;;;221706;1268;22524;-54
2023/08/14 01:06:47;;;;;;;3.70;3.40;;;26.30;64.90;;;;;;221824;1268;23928;-54
2023/08/14 01:12:12;;;;;;;3.40;3.10;;;26.30;65.00;;;;;;221583;1271;22623;-50
2023/08/14 01:17:17;;;;;;;3.50;3.20;;;26.30;65.40;;;;;;221729;1268;22520;-54
2023/08/14 01:23:11;;;;;;;3.30;3.00;;;26.30;65.00;;;;;;221733;1265;22527;-52
2023/08/14 01:28:15;;;;;;;3.60;3.30;;;26.30;65.10;;;;;;221100;1272;25268;-55
2023/08/14 01:33:17;;;;;;;3.60;3.20;;;26.30;65.10;;;;;;221162;1276;24207;-54
2023/08/14 01:38:39;;;;;;;3.10;2.80;;;26.30;65.00;;;;;;220702;1273;25346;-52
2023/08/14 01:43:48;;;;;;;3.20;3.00;;;26.30;65.30;;;;;;221345;1276;22523;-52
2023/08/14 01:48:55;;;;;;;3.50;3.20;;;26.20;65.10;;;;;;221216;1270;22654;-53
2023/08/14 01:53:59;;;;;;;3.70;3.40;;;26.30;65.30;;;;;;221135;1273;22543;-52
2023/08/14 01:59:03;;;;;;;3.20;2.90;;;26.30;65.30;;;;;;221799;1271;25284;-53
2023/08/14 02:04:07;;;;;;;3.50;3.30;;;26.20;65.40;;;;;;221800;1256;22523;-52
2023/08/14 02:09:10;;;;;;;3.20;3.00;;;26.20;65.30;;;;;;221603;1257;22560;-56
2023/08/14 02:14:13;;;;;;;3.10;2.90;;;26.20;65.60;;;;;;221516;1270;22843;-52
2023/08/14 02:19:16;;;;;;;3.40;3.00;;;26.20;65.30;;;;;;221863;1263;24229;-52
2023/08/14 02:24:19;;;;;;;3.40;3.10;;;26.20;65.30;;;;;;221683;1256;24071;-53
2023/08/14 02:29:22;;;;;;;3.60;3.30;;;26.20;65.40;;;;;;221987;1265;23020;-53
2023/08/14 02:34:46;;;;;;;4.20;3.10;;;26.20;65.40;;;;;;221685;1268;22521;-54
2023/08/14 02:39:49;;;;;;;4.30;3.90;;;26.20;65.40;;;;;;221819;1256;23653;-53
2023/08/14 02:44:52;;;;;;;3.30;3.00;;;26.20;65.40;;;;;;221736;1270;22692;-55
2023/08/14 02:49:54;;;;;;;3.80;3.40;;;26.10;65.40;;;;;;221551;1268;22520;-54
2023/08/14 02:54:57;;;;;;;3.60;3.00;;;26.10;65.40;;;;;;221726;1265;22517;-54
2023/08/14 03:00:00;;;;;;;4.00;3.40;;;26.10;65.40;;;;;;221666;1271;22521;-55
2023/08/14 03:05:03;;;;;;;5.40;3.50;;;26.10;65.50;;;;;;221757;1249;26521;-55
2023/08/14 03:10:07;;;;;;;3.20;3.00;;;26.10;65.50;;;;;;221831;1268;22518;-53
2023/08/14 03:15:10;;;;;;;3.80;3.50;;;26.10;65.50;;;;;;221755;1265;25310;-52
2023/08/14 03:20:13;;;;;;;3.60;3.20;;;26.10;65.80;;;;;;221763;1265;25453;-52
2023/08/14 03:25:17;;;;;;;4.50;3.00;;;26.10;65.50;;;;;;221502;1259;234221;-54
2023/08/14 03:30:20;;;;;;;4.40;2.80;;;26.10;65.60;;;;;;221737;1270;22548;-54
2023/08/14 03:35:26;;;;;;;4.40;3.50;;;26.10;65.50;;;;;;221799;1264;22632;-54
2023/08/14 03:40:31;;;;;;;3.20;2.90;;;26.10;65.40;;;;;;221691;1271;22553;-57
2023/08/14 03:45:34;;;;;;;5.20;3.20;;;26.10;65.30;;;;;;221848;1263;22520;-53
2023/08/14 03:50:38;;;;;;;4.70;3.10;;;26.00;65.60;;;;;;221636;1257;23886;-53
2023/08/14 03:55:41;;;;;;;3.60;2.90;;;26.10;65.30;;;;;;221619;1271;22569;-58
2023/08/14 04:00:49;;;;;;;3.10;2.90;;;26.10;65.60;;;;;;221793;1262;25328;-57
2023/08/14 04:05:57;;;;;;;3.20;3.00;;;26.00;65.10;;;;;;221650;1271;23708;-53
2023/08/14 04:10:59;;;;;;;3.30;3.00;;;26.00;65.30;;;;;;221962;1264;25247;-55
2023/08/14 04:16:04;;;;;;;3.20;3.00;;;26.00;65.30;;;;;;221655;1267;23923;-51
2023/08/14 04:21:07;;;;;;;3.70;3.30;;;26.00;65.30;;;;;;221745;1265;22914;-55
2023/08/14 04:26:10;;;;;;;3.40;3.20;;;26.00;65.50;;;;;;221629;1271;22530;-54
2023/08/14 04:31:13;;;;;;;3.10;2.90;;;26.00;65.40;;;;;;221702;1270;22529;-56
2023/08/14 04:36:15;;;;;;;3.00;2.80;;;26.00;65.40;;;;;;221843;1270;22517;-53
2023/08/14 04:41:19;;;;;;;2.80;2.60;;;26.00;65.50;;;;;;221879;1269;24234;-54
2023/08/14 04:46:32;;;;;;;3.60;3.30;;;26.00;65.50;;;;;;221865;1270;22642;-54
2023/08/14 04:51:52;;;;;;;3.30;3.00;;;26.00;65.50;;;;;;222008;1269;22535;-55
2023/08/14 04:56:55;;;;;;;3.50;3.20;;;26.00;65.50;;;;;;221872;1270;22538;-56
2023/08/14 05:01:58;;;;;;;3.40;3.10;;;26.00;65.60;;;;;;221875;1271;23931;-55
2023/08/14 05:07:01;;;;;;;2.80;2.60;;;26.00;65.70;;;;;;221942;1271;23951;-55
2023/08/14 05:12:05;;;;;;;3.50;3.10;;;26.00;65.70;;;;;;221866;1269;25504;-56
2023/08/14 05:17:08;;;;;;;3.40;3.20;;;26.10;65.70;;;;;;221819;1258;25296;-51
2023/08/14 05:22:11;;;;;;;2.90;2.70;;;26.10;65.70;;;;;;221756;1269;22736;-54
2023/08/14 05:27:14;;;;;;;4.30;3.20;;;26.10;65.70;;;;;;221852;1271;22536;-55
2023/08/14 05:32:17;;;;;;;3.30;3.00;;;26.10;65.60;;;;;;221763;1265;22620;-55
2023/08/14 05:37:20;;;;;;;3.10;2.90;;;26.10;65.60;;;;;;221710;1271;24204;-52
2023/08/14 05:42:23;;;;;;;3.00;2.80;;;26.10;65.30;;;;;;221705;1266;22586;-53
2023/08/14 05:47:27;;;;;;;3.50;3.20;;;26.10;65.40;;;;;;221652;1270;22522;-51
2023/08/14 05:52:30;;;;;;;2.90;2.70;;;26.20;65.50;;;;;;221720;1271;22613;-53
2023/08/14 05:57:32;;;;;;;3.20;2.90;;;26.10;65.40;;;;;;221765;1269;25495;-56
2023/08/14 06:02:35;;;;;;;3.10;2.80;;;26.20;65.40;;;;;;221857;1261;22515;-53
2023/08/14 06:07:39;;;;;;;2.90;2.40;;;26.20;65.30;;;;;;221639;1268;25611;-50
2023/08/14 06:12:44;;;;;;;4.20;3.00;;;26.20;65.20;;;;;;221695;1265;26537;-54
2023/08/14 06:17:48;;;;;;;3.00;2.60;;;26.30;65.20;;;;;;221963;1257;22573;-53
2023/08/14 06:22:51;;;;;;;2.80;2.60;;;26.20;65.10;;;;;;221907;1270;22533;-50
2023/08/14 06:27:54;;;;;;;2.80;2.60;;;26.20;65.20;;;;;;221888;1261;25462;-53
2023/08/14 06:32:57;;;;;;;2.50;2.30;;;26.20;65.30;;;;;;222105;1271;22539;-53
2023/08/14 06:38:00;;;;;;;2.90;2.70;;;26.30;65.30;;;;;;221717;1271;22530;-52
2023/08/14 06:43:06;;;;;;;3.20;3.00;;;26.30;65.00;;;;;;221803;1271;24207;-51
2023/08/14 06:48:09;;;;;;;3.70;2.20;;;26.30;65.00;;;;;;222000;1268;22883;-50
2023/08/14 06:53:12;;;;;;;3.30;2.70;;;26.30;65.00;;;;;;221690;1271;25340;-51
2023/08/14 06:58:15;;;;;;;2.70;2.40;;;26.40;65.00;;;;;;221998;1263;22594;-51
2023/08/14 07:03:18;;;;;;;2.70;2.50;;;26.40;64.90;;;;;;221807;1271;23174;-54
2023/08/14 07:08:21;;;;;;;2.50;2.30;;;26.40;64.80;;;;;;221937;1264;22519;-52
2023/08/14 07:13:24;;;;;;;2.50;2.30;;;26.40;65.00;;;;;;221626;1271;25277;-56
2023/08/14 07:18:27;;;;;;;3.60;2.80;;;26.40;64.60;;;;;;221615;1271;22637;-52
2023/08/14 07:23:31;;;;;;;3.60;2.40;;;26.50;64.60;;;;;;221751;1271;22650;-53
2023/08/14 07:28:34;;;;;;;2.50;2.40;;;26.50;64.50;;;;;;221906;1271;22549;-55
2023/08/14 07:33:37;;;;;;;2.30;2.20;;;26.50;64.40;;;;;;221707;1271;22522;-50
2023/08/14 07:38:40;;;;;;;2.70;2.50;;;26.50;64.30;;;;;;221665;1271;22517;-53
2023/08/14 07:43:43;;;;;;;2.70;2.50;;;26.60;64.30;;;;;;221895;1268;23913;-52
2023/08/14 07:48:47;;;;;;;2.50;2.30;;;26.50;64.20;;;;;;221835;1271;22527;-54
2023/08/14 07:53:50;;;;;;;2.50;2.30;;;26.60;64.20;;;;;;221830;1270;22626;-53
2023/08/14 07:58:53;;;;;;;2.10;2.00;;;26.60;64.20;;;;;;221880;1265;22619;-54
2023/08/14 08:03:56;;;;;;;2.60;2.40;;;26.60;64.10;;;;;;221975;1268;27727;-52
2023/08/14 08:08:59;;;;;;;2.50;2.30;;;26.70;64.10;;;;;;221859;1271;22518;-51
2023/08/14 08:14:05;;;;;;;2.60;2.40;;;26.70;64.40;;;;;;222165;1271;22711;-52
2023/08/14 08:19:08;;;;;;;2.80;2.60;;;26.70;64.00;;;;;;222000;1259;24238;-52
2023/08/14 08:24:11;;;;;;;3.20;2.20;;;26.80;63.80;;;;;;221757;1257;22642;-51
2023/08/14 08:29:13;;;;;;;2.10;2.00;;;26.80;63.80;;;;;;221820;1264;22571;-53
2023/08/14 08:34:16;;;;;;;2.50;2.30;;;26.90;63.60;;;;;;221546;1271;22646;-53
2023/08/14 08:39:20;;;;;;;2.90;2.70;;;26.90;63.70;;;;;;221738;1270;22541;-52
2023/08/14 08:44:32;;;;;;;3.40;2.20;;;26.90;63.60;;;;;;221928;1257;24205;-53
2023/08/14 08:49:40;;;;;;;2.80;2.60;;;26.90;63.60;;;;;;221771;1267;24270;-52
2023/08/14 08:54:47;;;;;;;2.40;2.20;;;26.90;63.50;;;;;;221868;1268;25338;-52
2023/08/14 08:59:52;;;;;;;2.60;2.30;;;27.00;63.50;;;;;;221750;1269;23179;-51
2023/08/14 09:04:55;;;;;;;2.40;2.20;;;27.00;63.40;;;;;;222033;1269;25461;-54
2023/08/14 09:09:58;;;;;;;2.70;2.50;;;27.00;63.40;;;;;;221564;1271;24229;-50
2023/08/14 09:15:06;;;;;;;2.80;2.60;;;27.00;63.30;;;;;;221650;1271;22517;-54
2023/08/14 09:20:14;;;;;;;2.20;2.10;;;27.10;63.20;;;;;;221722;1271;22570;-55
2023/08/14 09:25:31;;;;;;;2.70;2.50;;;27.10;63.50;;;;;;221911;1257;22736;-53
2023/08/14 09:30:36;;;;;;;2.40;2.30;;;27.20;63.10;;;;;;222033;1270;23926;-54
2023/08/14 09:35:39;;;;;;;2.50;2.40;;;27.20;63.00;;;;;;221974;1267;25305;-51
2023/08/14 09:40:43;;;;;;;2.30;2.20;;;27.30;63.30;;;;;;221543;1271;22576;-52
2023/08/14 09:45:47;;;;;;;2.20;2.10;;;27.30;62.80;;;;;;221893;1271;22775;-52
2023/08/14 09:50:51;;;;;;;2.20;2.10;;;27.40;62.80;;;;;;221839;1268;24061;-53
2023/08/14 09:55:54;;;;;;;2.50;2.40;;;27.40;62.60;;;;;;221568;1261;24237;-51
2023/08/14 10:00:57;;;;;;;2.40;2.20;;;27.50;62.60;;;;;;221933;1253;24207;-52
2023/08/14 10:06:03;;;;;;;2.20;2.10;;;27.50;62.50;;;;;;221651;1271;22771;-53
2023/08/14 10:11:07;;;;;;;2.30;2.20;;;27.60;62.30;;;;;;221887;1271;23016;-52
2023/08/14 10:16:23;;;;;;;2.30;2.20;;;27.50;62.40;;;;;;221604;1268;22528;-53
2023/08/14 10:21:31;;;;;;;2.30;2.20;;;27.60;62.30;;;;;;221741;1268;25275;-51
2023/08/14 10:26:34;;;;;;;2.60;2.40;;;27.70;62.30;;;;;;222047;1269;22537;-54
2023/08/14 10:31:37;;;;;;;2.10;2.00;;;27.70;62.30;;;;;;221984;1271;22551;-51
2023/08/14 10:36:40;;;;;;;2.30;2.20;;;27.70;62.40;;;;;;222080;1260;23800;-52
2023/08/14 10:41:43;;;;;;;2.50;2.40;;;27.80;62.20;;;;;;221940;1271;24216;-52
2023/08/14 10:46:46;;;;;;;2.00;1.80;;;27.80;62.10;;;;;;221973;1264;22524;-52
2023/08/14 10:51:49;;;;;;;2.50;2.30;;;27.80;62.40;;;;;;222077;1271;22684;-51
2023/08/14 10:56:57;;;;;;;3.00;2.00;;;27.90;62.00;;;;;;221867;1263;22542;-51
2023/08/14 11:02:18;;;;;;;3.80;2.50;;;27.90;62.20;;;;;;221686;1271;22528;-52
2023/08/14 11:07:26;;;;;;;2.60;2.40;;;28.00;62.00;;;;;;221652;1271;22622;-54
2023/08/14 11:12:30;;;;;;;2.60;2.40;;;28.00;61.90;;;;;;221857;1267;25610;-50
2023/08/14 11:17:33;;;;;;;2.70;2.50;;;28.00;62.00;;;;;;221966;1268;25410;-53
2023/08/14 11:22:36;;;;;;;2.40;2.20;;;28.10;61.90;;;;;;221720;1269;22523;-54
2023/08/14 11:27:39;;;;;;;2.20;2.10;;;28.10;61.80;;;;;;221655;1264;22520;-52
2023/08/14 11:32:42;;;;;;;2.10;2.00;;;28.10;61.80;;;;;;221838;1271;22538;-50
2023/08/14 11:37:46;;;;;;;2.20;2.10;;;28.20;61.80;;;;;;222097;1271;25474;-50
2023/08/14 11:42:49;;;;;;;2.40;2.20;;;28.20;61.70;;;;;;222077;1259;22646;-52
2023/08/14 11:47:55;;;;;;;1.90;1.80;;;28.30;61.60;;;;;;222084;1267;25425;-52
2023/08/14 11:52:58;;;;;;;2.10;2.00;;;28.30;61.60;;;;;;222114;1270;22680;-54
2023/08/14 11:58:02;;;;;;;2.00;1.90;;;28.30;61.50;;;;;;221959;1271;22534;-53
2023/08/14 12:03:10;;;;;;;2.00;1.90;;;28.40;61.40;;;;;;221877;1256;22544;-53
2023/08/14 12:08:13;;;;;;;2.20;2.10;;;28.40;62.10;;;;;;221858;1271;22527;-52
2023/08/14 12:13:20;;;;;;;2.40;2.30;;;28.40;61.70;;;;;;221899;1266;22531;-54
2023/08/14 12:18:24;;;;;;;1.90;1.80;;;28.40;61.30;;;;;;221806;1264;23379;-54
2023/08/14 12:23:28;;;;;;;2.20;2.00;;;28.40;61.30;;;;;;221980;1264;22537;-53
2023/08/14 12:28:31;;;;;;;3.00;2.80;;;28.40;61.30;;;;;;221915;1270;24214;-55
2023/08/14 12:33:33;;;;;;;2.40;2.30;;;28.40;61.30;;;;;;221925;1270;24273;-52
2023/08/14 12:38:37;;;;;;;2.10;2.00;;;28.50;61.30;;;;;;221652;1271;22520;-53
2023/08/14 12:43:40;;;;;;;2.20;2.10;;;28.40;61.30;;;;;;221856;1270;22530;-53
2023/08/14 12:48:43;;;;;;;2.40;2.30;;;28.40;61.40;;;;;;222052;1264;22737;-50
2023/08/14 12:53:46;;;;;;;2.10;2.00;;;28.40;61.30;;;;;;221987;1271;22642;-54
2023/08/14 12:58:49;;;;;;;2.40;2.20;;;28.40;61.30;;;;;;221735;1271;24209;-52
2023/08/14 13:03:53;;;;;;;2.00;1.90;;;28.40;61.30;;;;;;222077;1268;22524;-53
2023/08/14 13:08:58;;;;;;;3.20;2.50;;;28.50;61.70;;;;;;221845;1267;22673;-52
2023/08/14 13:14:01;;;;;;;2.30;2.20;;;28.50;61.40;;;;;;222036;1257;22658;-53
2023/08/14 13:19:05;;;;;;;2.40;2.30;;;28.50;61.40;;;;;;221699;1260;24235;-54
2023/08/14 13:24:08;;;;;;;2.80;2.60;;;28.50;61.40;;;;;;221693;1263;24276;-51
2023/08/14 13:29:10;;;;;;;2.40;2.30;;;28.50;61.40;;;;;;221821;1258;22661;-51
2023/08/14 13:34:13;;;;;;;2.60;2.50;;;28.50;61.40;;;;;;221899;1269;22617;-55
2023/08/14 13:39:16;;;;;;;2.60;2.40;;;28.60;61.40;;;;;;221930;1271;24220;-53
2023/08/14 13:44:19;;;;;;;2.40;2.30;;;28.60;61.40;;;;;;222063;1264;22528;-53
2023/08/14 13:49:22;;;;;;;2.60;2.50;;;28.60;61.40;;;;;;221994;1255;22537;-52
2023/08/14 13:54:25;;;;;;;2.60;2.50;;;28.50;61.40;;;;;;222126;1265;22537;-53
2023/08/14 13:59:30;;;;;;;2.40;2.30;;;28.60;61.80;;;;;;221916;1270;23895;-50
2023/08/14 14:04:33;;;;;;;2.70;2.50;;;28.50;61.50;;;;;;221914;1271;22523;-53
2023/08/14 14:09:36;;;;;;;2.80;2.60;;;28.50;61.50;;;;;;222188;1271;23946;-53
2023/08/14 14:14:41;;;;;;;2.70;2.60;;;28.50;61.60;;;;;;221908;1264;22521;-56
2023/08/14 14:19:43;;;;;;;2.60;2.50;;;28.50;61.70;;;;;;222029;1261;22738;-52
2023/08/14 14:24:47;;;;;;;2.70;2.40;;;28.40;61.50;;;;;;221878;1257;22519;-54
2023/08/14 14:29:50;;;;;;;2.60;2.40;;;28.50;61.50;;;;;;221786;1271;22583;-53
2023/08/14 14:34:52;;;;;;;2.60;2.40;;;28.50;61.90;;;;;;221627;1264;22880;-52
2023/08/14 14:39:55;;;;;;;2.60;2.40;;;28.50;61.50;;;;;;221595;1270;22608;-53
2023/08/14 14:44:58;;;;;;;2.60;2.50;;;28.50;61.50;;;;;;221922;1270;24085;-53
2023/08/14 14:50:01;;;;;;;2.60;2.50;;;28.50;61.50;;;;;;221874;1271;24060;-53
2023/08/14 14:55:08;;;;;;;2.90;2.70;;;28.50;61.50;;;;;;221648;1269;22529;-54
2023/08/14 15:00:12;;;;;;;2.50;2.30;;;28.50;61.90;;;;;;221953;1263;25509;-54
2023/08/14 15:05:15;;;;;;;2.70;2.60;;;28.50;61.50;;;;;;221978;1257;22767;-54
2023/08/14 15:10:30;;;;;;;2.50;2.40;;;28.50;61.30;;;;;;221778;1267;25463;-53
2023/08/14 15:15:36;;;;;;;2.70;2.60;;;28.50;61.60;;;;;;221900;1270;22544;-52
2023/08/14 15:20:39;;;;;;;2.70;2.60;;;28.50;61.60;;;;;;222002;1267;22614;-53
2023/08/14 15:25:42;;;;;;;2.60;2.50;;;28.40;61.60;;;;;;221537;1264;224121;-53
2023/08/14 15:30:45;;;;;;;2.40;2.30;;;28.40;61.70;;;;;;222125;1271;22531;-56
2023/08/14 15:35:50;;;;;;;3.00;2.80;;;28.40;61.80;;;;;;221651;1264;23890;-54
2023/08/14 15:40:53;;;;;;;2.80;2.60;;;28.40;61.90;;;;;;222015;1267;22527;-53
2023/08/14 15:46:03;;;;;;;2.60;2.40;;;28.40;62.00;;;;;;221607;1270;22910;-52
2023/08/14 15:51:06;;;;;;;2.70;2.50;;;28.30;62.00;;;;;;221900;1255;22803;-54
2023/08/14 15:56:09;;;;;;;2.70;2.50;;;28.30;61.90;;;;;;221914;1263;22614;-53
2023/08/14 16:01:12;;;;;;;2.70;2.60;;;28.30;61.80;;;;;;221924;1255;22544;-54
2023/08/14 16:06:15;;;;;;;2.90;2.70;;;28.30;61.90;;;;;;221560;1271;22533;-53
2023/08/14 16:11:19;;;;;;;2.60;2.50;;;28.30;61.90;;;;;;221971;1257;22798;-55
2023/08/14 16:16:22;;;;;;;3.30;2.90;;;28.30;62.10;;;;;;221949;1267;24221;-50
2023/08/14 16:21:25;;;;;;;2.90;2.70;;;28.20;62.10;;;;;;221949;1255;22548;-55
2023/08/14 16:26:28;;;;;;;2.50;2.40;;;28.20;62.40;;;;;;221921;1271;24213;-54
2023/08/14 16:31:31;;;;;;;2.60;2.40;;;28.20;62.10;;;;;;221558;1270;23940;-54
2023/08/14 16:36:34;;;;;;;2.70;2.50;;;28.20;62.10;;;;;;221969;1264;22532;-57
2023/08/14 16:41:37;;;;;;;2.50;2.40;;;28.20;62.00;;;;;;221892;1262;22534;-52
2023/08/14 16:46:40;;;;;;;3.00;2.80;;;28.20;62.10;;;;;;221937;1270;22601;-53
2023/08/14 16:51:43;;;;;;;3.20;3.00;;;28.20;62.10;;;;;;221737;1269;22536;-52
2023/08/14 16:56:46;;;;;;;2.50;2.40;;;28.20;62.20;;;;;;221649;1271;24056;-53
2023/08/14 17:01:49;;;;;;;3.20;3.00;;;28.20;62.20;;;;;;221764;1264;22548;-54
2023/08/14 17:06:51;;;;;;;3.30;3.10;;;28.20;62.10;;;;;;221895;1255;22530;-53
2023/08/14 17:11:55;;;;;;;3.10;2.90;;;28.20;62.10;;;;;;221787;1255;22675;-51
2023/08/14 17:16:58;;;;;;;3.90;3.60;;;28.20;62.00;;;;;;222175;1255;25236;-53
2023/08/14 17:22:01;;;;;;;3.80;3.50;;;28.20;62.10;;;;;;222002;1269;22558;-53
2023/08/14 17:27:05;;;;;;;3.20;2.60;;;28.20;62.20;;;;;;221824;1264;22537;-52
2023/08/14 17:32:08;;;;;;;3.40;3.20;;;28.10;62.10;;;;;;221660;1259;25082;-54
2023/08/14 17:37:14;;;;;;;3.30;3.10;;;28.20;62.50;;;;;;221825;1267;22516;-53
2023/08/14 17:42:18;;;;;;;3.60;3.20;;;28.20;62.30;;;;;;222067;1266;25719;-54
2023/08/14 17:47:22;;;;;;;3.30;3.00;;;28.10;62.40;;;;;;221937;1271;26508;-57
2023/08/14 17:52:26;;;;;;;3.90;3.50;;;28.10;62.40;;;;;;221853;1264;24215;-54
2023/08/14 17:57:29;;;;;;;7.70;4.40;;;28.10;62.60;;;;;;221937;1267;22731;-52
2023/08/14 18:02:34;;;;;;;5.00;3.60;;;28.10;62.60;;;;;;221859;1265;25388;-49
2023/08/14 18:07:37;;;;;;;5.40;3.70;;;28.10;62.60;;;;;;222155;1255;22513;-49
2023/08/14 18:12:41;;;;;;;4.40;3.80;;;28.10;62.50;;;;;;221958;1271;22575;-50
2023/08/14 18:17:45;;;;;;;4.80;3.80;;;28.00;62.60;;;;;;222059;1255;22533;-51
2023/08/14 18:22:49;;;;;;;5.60;3.80;;;28.00;62.90;;;;;;221897;1263;22625;-53
2023/08/14 18:27:52;;;;;;;5.40;4.00;;;28.00;62.50;;;;;;221880;1267;22580;-46
2023/08/14 18:32:56;;;;;;;5.70;4.20;;;28.00;63.00;;;;;;221972;1271;22587;-49
2023/08/14 18:38:01;;;;;;;8.60;3.80;;;28.00;62.80;;;;;;222098;1271;24469;-46
2023/08/14 18:43:04;;;;;;;5.60;4.20;;;28.00;62.50;;;;;;222007;1258;22549;-53
2023/08/14 18:48:09;;;;;;;5.80;4.10;;;28.00;62.40;;;;;;221834;1271;22532;-50
2023/08/14 18:53:12;;;;;;;4.30;3.90;;;28.00;62.40;;;;;;222044;1255;25305;-48
2023/08/14 18:58:15;;;;;;;8.10;4.50;;;27.90;62.60;;;;;;221926;1271;25311;-50
2023/08/14 19:03:19;;;;;;;4.90;4.50;;;27.90;62.60;;;;;;221942;1270;24316;-51
2023/08/14 19:08:24;;;;;;;5.90;4.50;;;27.90;62.70;;;;;;221837;1267;25409;-51
2023/08/14 19:13:27;;;;;;;5.20;4.80;;;27.80;62.60;;;;;;221790;1264;24231;-51
2023/08/14 19:18:31;;;;;;;4.70;4.20;;;27.80;62.60;;;;;;222048;1265;22597;-51
2023/08/14 19:23:34;;;;;;;4.70;4.10;;;27.80;62.50;;;;;;221905;1271;23027;-49
2023/08/14 19:28:38;;;;;;;4.90;4.30;;;27.80;62.40;;;;;;221996;1259;25223;-51
2023/08/14 19:33:43;;;;;;;5.50;3.90;;;27.80;62.40;;;;;;222042;1270;22581;-53
2023/08/14 19:38:46;;;;;;;6.40;4.20;;;27.80;62.50;;;;;;221671;1249;24352;-52
2023/08/14 19:44:03;;;;;;;4.00;3.70;;;27.80;62.10;;;;;;221894;1264;27119;-47
2023/08/14 19:49:09;;;;;;;4.20;3.40;;;27.80;62.10;;;;;;222025;1255;22519;-49
2023/08/14 19:54:17;;;;;;;4.90;3.90;;;27.80;62.40;;;;;;222032;1263;22575;-52
2023/08/14 19:59:21;;;;;;;4.00;3.60;;;27.80;62.20;;;;;;221810;1268;23964;-51
2023/08/14 20:04:24;;;;;;;5.00;4.00;;;27.70;61.70;;;;;;221772;1267;22626;-52
2023/08/14 20:09:28;;;;;;;5.30;4.20;;;27.70;61.80;;;;;;221883;1271;22658;-49
2023/08/14 20:14:31;;;;;;;4.60;4.20;;;27.70;61.80;;;;;;222040;1269;24243;-53
2023/08/14 20:19:34;;;;;;;4.90;4.40;;;27.70;61.90;;;;;;221786;1266;22597;-50
2023/08/14 20:24:37;;;;;;;5.00;4.60;;;27.70;61.90;;;;;;221881;1271;22531;-50
2023/08/14 20:29:41;;;;;;;5.60;5.10;;;27.70;62.30;;;;;;221825;1271;22534;-51
2023/08/14 20:34:45;;;;;;;6.00;4.80;;;27.60;62.30;;;;;;222272;1265;25406;-53
2023/08/14 20:39:48;;;;;;;5.70;5.10;;;27.70;62.10;;;;;;222137;1265;22653;-55
2023/08/14 20:44:52;;;;;;;10.00;5.60;;;27.60;61.70;;;;;;221787;1270;22514;-54
2023/08/14 20:49:55;;;;;;;6.00;5.50;;;27.60;62.20;;;;;;221934;1264;24240;-56
2023/08/14 20:54:59;;;;;;;7.90;5.70;;;27.60;62.20;;;;;;221989;1270;22548;-53
2023/08/14 21:00:02;;;;;;;6.10;5.60;;;27.60;62.20;;;;;;221774;1266;24270;-54
2023/08/14 21:05:06;;;;;;;6.30;5.70;;;27.60;62.30;;;;;;221962;1264;24201;-55
2023/08/14 21:10:10;;;;;;;6.90;6.30;;;27.60;62.30;;;;;;222226;1270;22534;-55
2023/08/14 21:15:13;;;;;;;6.80;6.10;;;27.60;62.40;;;;;;221519;1271;24753;-54
2023/08/14 21:20:16;;;;;;;8.00;5.60;;;27.60;62.60;;;;;;221689;1270;22645;-54
2023/08/14 21:25:19;;;;;;;6.70;6.00;;;27.60;62.30;;;;;;221610;1270;24303;-53
2023/08/14 21:30:23;;;;;;;8.70;5.20;;;27.60;62.20;;;;;;221696;1270;22522;-58
2023/08/14 21:35:26;;;;;;;6.80;5.80;;;27.50;62.20;;;;;;222044;1270;24259;-55
2023/08/14 21:40:29;;;;;;;6.40;5.70;;;27.50;62.30;;;;;;222027;1271;22521;-55
2023/08/14 21:45:32;;;;;;;7.40;5.30;;;27.50;62.40;;;;;;222026;1260;22530;-54
2023/08/14 21:50:38;;;;;;;6.00;5.10;;;27.50;62.30;;;;;;221640;1271;22524;-56
2023/08/14 21:55:41;;;;;;;5.70;5.20;;;27.40;62.20;;;;;;221905;1257;25471;-55
2023/08/14 22:00:43;;;;;;;7.90;5.70;;;27.50;62.20;;;;;;221912;1271;22516;-55
2023/08/14 22:05:46;;;;;;;6.90;5.90;;;27.50;62.20;;;;;;221738;1269;22518;-55
2023/08/14 22:10:49;;;;;;;7.20;6.60;;;27.40;62.00;;;;;;221871;1268;23921;-55
2023/08/14 22:15:52;;;;;;;6.80;6.30;;;27.40;62.00;;;;;;221824;1271;22535;-55
2023/08/14 22:20:56;;;;;;;6.60;6.10;;;27.40;62.00;;;;;;221940;1271;22532;-51
2023/08/14 22:25:59;;;;;;;8.50;6.20;;;27.40;62.00;;;;;;221756;1269;23160;-53
2023/08/14 22:31:02;;;;;;;6.40;5.80;;;27.40;62.10;;;;;;222036;1270;25596;-53
2023/08/14 22:36:06;;;;;;;7.90;5.70;;;27.40;62.10;;;;;;221696;1264;24376;-56
2023/08/14 22:41:08;;;;;;;6.40;5.60;;;27.40;62.20;;;;;;221736;1264;23900;-54
2023/08/14 22:46:11;;;;;;;6.50;5.80;;;27.30;62.10;;;;;;222015;1265;22645;-56
2023/08/14 22:51:14;;;;;;;6.20;5.70;;;27.40;62.10;;;;;;221745;1260;22713;-55
2023/08/14 22:56:16;;;;;;;6.20;5.70;;;27.30;62.00;;;;;;221785;1270;22579;-54
2023/08/14 23:01:19;;;;;;;6.60;5.80;;;27.30;61.90;;;;;;221997;1255;22605;-53
2023/08/14 23:06:22;;;;;;;6.50;5.40;;;27.30;62.10;;;;;;221850;1271;22617;-55
2023/08/14 23:11:25;;;;;;;6.80;5.30;;;27.30;61.70;;;;;;221878;1264;22524;-55
2023/08/14 23:16:29;;;;;;;6.00;5.40;;;27.30;61.50;;;;;;222061;1269;22627;-54
2023/08/14 23:21:32;;;;;;;5.70;5.20;;;27.30;61.50;;;;;;221937;1270;22815;-55
2023/08/14 23:26:35;;;;;;;6.30;5.70;;;27.30;62.10;;;;;;221886;1271;22517;-55
2023/08/14 23:31:38;;;;;;;6.00;5.60;;;27.20;61.40;;;;;;221985;1264;22536;-54
2023/08/14 23:36:41;;;;;;;5.70;5.20;;;27.20;61.50;;;;;;221747;1269;25419;-53
2023/08/14 23:41:44;;;;;;;6.50;5.90;;;27.20;61.40;;;;;;221906;1271;22556;-57
2023/08/14 23:46:47;;;;;;;5.60;5.10;;;27.20;61.40;;;;;;221664;1265;22748;-54
2023/08/14 23:51:50;;;;;;;5.00;4.60;;;27.20;61.30;;;;;;221828;1268;22527;-54
2023/08/14 23:56:53;;;;;;;5.70;5.20;;;27.20;61.20;;;;;;221651;1267;22540;-53
